Time;durP1;ratioP1;P1;durP2;ratioP2;P2;SDS_P1;SDS_P2;PMS_P1;PMS_P2;Temp;Humidity;BMP_temperature;BMP_pressure;BME280_temperature;BME280_humidity;BME280_pressure;Samples;Min_cycle;Max_cycle;Signal;HPM_P1;HPM_P2
2024/05/03 00:01:00;;;;;;;;;;;16.60;51.70;;;;;;4348676;27;19931;-82
2024/05/03 00:03:19;;;;;;;;;;;16.60;51.50;;;;;;4344847;27;19974;-83
2024/05/03 00:05:38;;;;;;;;;;;16.50;52.10;;;;;;4345623;27;19935;-81
2024/05/03 00:07:57;;;;;;;;;;;16.60;51.90;;;;;;4349046;27;19953;-81
2024/05/03 00:10:18;;;;;;;;;;;16.60;52.20;;;;;;4323632;27;19968;-82
2024/05/03 00:12:37;;;;;;;;;;;16.60;52.50;;;;;;4363185;26;19931;-80
2024/05/03 00:14:56;;;;;;;;;;;16.60;52.20;;;;;;4349207;27;19932;-83
2024/05/03 00:17:15;;;;;;;;;;;16.70;52.50;;;;;;4327897;27;19950;-80
2024/05/03 00:19:35;;;;;;;;;;;16.60;52.60;;;;;;4342972;27;20453;-82
2024/05/03 00:21:54;;;;;;;;;;;16.70;52.80;;;;;;4309575;27;19988;-83
2024/05/03 00:24:14;;;;;;;;;;;16.70;52.50;;;;;;4351777;27;19967;-82
2024/05/03 00:26:33;;;;;;;;;;;16.80;52.90;;;;;;4316109;27;19936;-82
2024/05/03 00:28:53;;;;;;;;;;;16.90;52.50;;;;;;4325748;27;20336;-83
2024/05/03 00:31:12;;;;;;;;;;;17.00;52.90;;;;;;4348644;27;20327;-82
2024/05/03 00:33:31;;;;;;;;;;;17.10;53.00;;;;;;4342238;27;20464;-82
2024/05/03 00:35:50;;;;;;;;;;;17.20;54.40;;;;;;4354269;27;19965;-82
2024/05/03 00:38:09;;;;;;;;;;;17.20;53.60;;;;;;4308989;27;20291;-82
2024/05/03 00:40:29;;;;;;;;;;;17.30;53.40;;;;;;4321008;27;20299;-81
2024/05/03 00:42:48;;;;;;;;;;;17.40;53.90;;;;;;4362728;26;19931;-80
2024/05/03 00:45:07;;;;;;;;;;;17.50;53.60;;;;;;4347164;27;19935;-81
2024/05/03 00:47:26;;;;;;;;;;;17.50;53.30;;;;;;4332723;27;20364;-83
2024/05/03 00:49:46;;;;;;;;;;;17.50;53.50;;;;;;4353167;27;19940;-85
2024/05/03 00:52:05;;;;;;;;;;;17.70;52.90;;;;;;4330457;27;19938;-82
2024/05/03 00:54:25;;;;;;;;;;;17.70;53.10;;;;;;4356566;27;19930;-81
2024/05/03 00:56:47;;;;;;;;;;;17.80;53.00;;;;;;4356075;27;19943;-81
2024/05/03 00:59:07;;;;;;;;;;;17.70;53.10;;;;;;4335316;27;20251;-83
2024/05/03 01:01:26;;;;;;;;;;;17.90;53.40;;;;;;4370822;26;19939;-83
2024/05/03 01:03:46;;;;;;;;;;;17.90;53.40;;;;;;4355036;27;19942;-81
2024/05/03 01:06:06;;;;;;;;;;;17.90;53.30;;;;;;4357895;27;19962;-82
2024/05/03 01:08:25;;;;;;;;;;;18.00;53.10;;;;;;4336335;27;19935;-82
2024/05/03 01:10:45;;;;;;;;;;;18.00;53.30;;;;;;4351443;27;20291;-81
2024/05/03 01:13:04;;;;;;;;;;;18.10;53.20;;;;;;4351664;27;19938;-83
2024/05/03 01:15:24;;;;;;;;;;;18.00;53.20;;;;;;4345567;27;19943;-81
2024/05/03 01:17:43;;;;;;;;;;;18.10;52.50;;;;;;4324204;27;19939;-82
2024/05/03 01:20:03;;;;;;;;;;;18.10;53.40;;;;;;4332091;27;20398;-82
2024/05/03 01:22:25;;;;;;;;;;;18.10;53.20;;;;;;4356812;27;19931;-82
2024/05/03 01:24:45;;;;;;;;;;;18.10;53.30;;;;;;4330852;27;20398;-81
2024/05/03 01:27:04;;;;;;;;;;;18.20;53.40;;;;;;4314435;27;20007;-82
2024/05/03 01:29:24;;;;;;;;;;;18.20;52.90;;;;;;4336648;27;19931;-82
2024/05/03 01:31:43;;;;;;;;;;;18.20;53.60;;;;;;4350182;27;19987;-82
2024/05/03 01:34:03;;;;;;;;;;;18.20;53.40;;;;;;4322883;27;20001;-82
2024/05/03 01:36:22;;;;;;;;;;;18.20;53.40;;;;;;4372510;27;19940;-80
2024/05/03 01:38:42;;;;;;;;;;;18.20;53.60;;;;;;4377139;26;19930;-83
2024/05/03 01:41:01;;;;;;;;;;;18.20;53.60;;;;;;4326493;27;20359;-80
2024/05/03 01:43:20;;;;;;;;;;;18.20;53.30;;;;;;4352680;27;19931;-83
2024/05/03 01:45:40;;;;;;;;;;;18.20;53.30;;;;;;4346599;27;20780;-86
2024/05/03 01:47:59;;;;;;;;;;;18.20;53.60;;;;;;4354140;27;19939;-82
2024/05/03 01:50:18;;;;;;;;;;;18.20;53.60;;;;;;4343523;27;20298;-83
2024/05/03 01:52:38;;;;;;;;;;;18.20;53.90;;;;;;4354567;27;19957;-83
2024/05/03 01:54:58;;;;;;;;;;;18.20;53.60;;;;;;4355852;27;19931;-82
2024/05/03 01:57:17;;;;;;;;;;;18.20;53.80;;;;;;4322037;27;20321;-82
2024/05/03 01:59:37;;;;;;;;;;;18.20;53.80;;;;;;4329901;27;20422;-84
2024/05/03 02:01:56;;;;;;;;;;;18.20;53.20;;;;;;4348787;27;20005;-82
2024/05/03 02:04:16;;;;;;;;;;;18.20;53.60;;;;;;4348110;27;20029;-83
2024/05/03 02:06:35;;;;;;;;;;;18.20;53.40;;;;;;4321415;27;19932;-81
2024/05/03 02:08:54;;;;;;;;;;;18.10;53.80;;;;;;4323642;27;20437;-83
2024/05/03 02:11:16;;;;;;;;;;;18.10;54.00;;;;;;4340420;27;19942;-83
2024/05/03 02:13:35;;;;;;;;;;;18.10;54.40;;;;;;4381061;26;19930;-83
2024/05/03 02:15:54;;;;;;;;;;;18.10;54.00;;;;;;4354577;27;19931;-82
2024/05/03 02:18:14;;;;;;;;;;;18.10;53.80;;;;;;4370540;26;20364;-81
2024/05/03 02:20:33;;;;;;;;;;;18.10;53.70;;;;;;4350388;27;20618;-81
2024/05/03 02:22:52;;;;;;;;;;;18.10;53.50;;;;;;4351629;27;19930;-83
2024/05/03 02:25:12;;;;;;;;;;;18.10;53.70;;;;;;4330462;27;20371;-83
2024/05/03 02:27:32;;;;;;;;;;;18.10;53.80;;;;;;4329524;27;19940;-84
2024/05/03 02:29:52;;;;;;;;;;;18.10;53.90;;;;;;4350403;27;20355;-83
2024/05/03 02:32:11;;;;;;;;;;;18.10;54.90;;;;;;4349221;27;19940;-84
2024/05/03 02:34:30;;;;;;;;;;;18.10;54.30;;;;;;4351777;27;20415;-84
2024/05/03 02:36:50;;;;;;;;;;;18.20;54.40;;;;;;4350028;27;19932;-81
2024/05/03 02:39:09;;;;;;;;;;;18.10;54.20;;;;;;4336526;27;20362;-82
2024/05/03 02:41:28;;;;;;;;;;;18.10;53.70;;;;;;4311326;27;19979;-84
2024/05/03 02:43:48;;;;;;;;;;;17.80;54.20;;;;;;4337917;27;19931;-82
2024/05/03 02:46:07;;;;;;;;;;;18.00;54.10;;;;;;4380763;26;19931;-84
2024/05/03 02:48:26;;;;;;;;;;;18.10;56.00;;;;;;4324193;27;20497;-82
2024/05/03 02:50:45;;;;;;;;;;;18.10;54.60;;;;;;4340769;27;20228;-80
2024/05/03 02:53:04;;;;;;;;;;;18.10;53.90;;;;;;4345077;27;19935;-83
2024/05/03 02:55:23;;;;;;;;;;;18.10;54.20;;;;;;4320717;27;20402;-83
2024/05/03 02:57:43;;;;;;;;;;;18.10;55.10;;;;;;4370663;27;20365;-82
2024/05/03 03:00:02;;;;;;;;;;;18.10;55.10;;;;;;4350066;27;19931;-83
2024/05/03 03:02:21;;;;;;;;;;;18.10;53.90;;;;;;4355631;27;19994;-83
2024/05/03 03:04:41;;;;;;;;;;;18.10;54.70;;;;;;4326266;27;19932;-84
2024/05/03 03:07:00;;;;;;;;;;;18.00;54.50;;;;;;4351743;27;19931;-84
2024/05/03 03:09:20;;;;;;;;;;;17.90;53.50;;;;;;4357692;27;20209;-83
2024/05/03 03:11:42;;;;;;;;;;;17.90;53.00;;;;;;4375402;26;20351;-82
2024/05/03 03:14:01;;;;;;;;;;;17.90;54.30;;;;;;4344236;27;20326;-82
2024/05/03 03:16:22;;;;;;;;;;;17.80;54.40;;;;;;4362109;26;20539;-82
2024/05/03 03:18:42;;;;;;;;;;;17.90;56.60;;;;;;4327018;27;19931;-84
2024/05/03 03:21:03;;;;;;;;;;;17.80;55.30;;;;;;4349778;27;20714;-86
2024/05/03 03:23:23;;;;;;;;;;;17.70;56.70;;;;;;4309200;27;19940;-83
2024/05/03 03:25:42;;;;;;;;;;;17.70;56.60;;;;;;4324578;27;19939;-82
2024/05/03 03:28:03;;;;;;;;;;;17.70;56.50;;;;;;4328442;27;20003;-83
2024/05/03 03:30:24;;;;;;;;;;;17.70;55.40;;;;;;4347643;27;19938;-83
2024/05/03 03:32:43;;;;;;;;;;;17.70;55.20;;;;;;4327514;27;19939;-84
2024/05/03 03:35:02;;;;;;;;;;;17.70;55.50;;;;;;4361047;27;20004;-85
2024/05/03 03:37:22;;;;;;;;;;;17.70;55.30;;;;;;4369645;26;19946;-81
2024/05/03 03:39:45;;;;;;;;;;;17.70;55.20;;;;;;4360077;27;19942;-81
2024/05/03 03:42:04;;;;;;;;;;;17.70;55.00;;;;;;4324366;27;20444;-84
2024/05/03 03:44:24;;;;;;;;;;;17.70;55.30;;;;;;4377653;27;19987;-82
2024/05/03 03:46:43;;;;;;;;;;;17.70;55.20;;;;;;4352489;27;20057;-85
2024/05/03 03:49:03;;;;;;;;;;;17.70;55.30;;;;;;4321379;27;19946;-84
2024/05/03 03:51:22;;;;;;;;;;;17.80;55.80;;;;;;4304362;27;20704;-84
2024/05/03 03:53:42;;;;;;;;;;;17.70;55.60;;;;;;4320988;27;20065;-82
2024/05/03 03:56:02;;;;;;;;;;;17.60;55.30;;;;;;4317151;27;19931;-84
2024/05/03 03:58:21;;;;;;;;;;;17.60;54.80;;;;;;4328500;27;19988;-81
2024/05/03 04:00:40;;;;;;;;;;;17.60;53.90;;;;;;4337171;27;20015;-81
2024/05/03 04:03:00;;;;;;;;;;;17.60;55.10;;;;;;4344147;27;19996;-82
2024/05/03 04:05:20;;;;;;;;;;;17.70;55.60;;;;;;4327017;27;19936;-83
2024/05/03 04:07:40;;;;;;;;;;;17.50;54.50;;;;;;4374139;27;19931;-83
2024/05/03 04:09:59;;;;;;;;;;;17.50;54.80;;;;;;4315072;27;19943;-83
2024/05/03 04:12:19;;;;;;;;;;;17.50;54.40;;;;;;4356945;27;19939;-81
2024/05/03 04:14:39;;;;;;;;;;;17.60;53.70;;;;;;4317894;27;19932;-82
2024/05/03 04:16:58;;;;;;;;;;;17.40;55.00;;;;;;4313494;27;19947;-81
2024/05/03 04:19:17;;;;;;;;;;;17.40;55.10;;;;;;4323660;27;20226;-81
2024/05/03 04:21:36;;;;;;;;;;;17.30;55.40;;;;;;4355336;27;19934;-82
2024/05/03 04:23:55;;;;;;;;;;;17.30;55.80;;;;;;4330373;27;19936;-83
2024/05/03 04:26:15;;;;;;;;;;;17.30;54.90;;;;;;4375540;26;20314;-84
2024/05/03 04:28:35;;;;;;;;;;;17.40;55.60;;;;;;4369088;27;19942;-82
2024/05/03 04:30:54;;;;;;;;;;;17.30;56.00;;;;;;4348088;27;20298;-82
2024/05/03 04:33:14;;;;;;;;;;;17.30;54.90;;;;;;4326415;27;19943;-82
2024/05/03 04:35:33;;;;;;;;;;;17.30;55.90;;;;;;4317108;27;19931;-82
2024/05/03 04:37:52;;;;;;;;;;;17.20;55.50;;;;;;4332899;27;19932;-83
2024/05/03 04:40:11;;;;;;;;;;;17.20;55.70;;;;;;4326376;27;19936;-80
2024/05/03 04:42:31;;;;;;;;;;;17.20;55.50;;;;;;4353158;27;20233;-81
2024/05/03 04:44:53;;;;;;;;;;;17.20;55.70;;;;;;4393414;26;19937;-84
2024/05/03 04:47:13;;;;;;;;;;;17.20;56.60;;;;;;4348583;27;19941;-83
2024/05/03 04:49:33;;;;;;;;;;;17.20;56.20;;;;;;4335268;27;20008;-82
2024/05/03 04:51:52;;;;;;;;;;;17.20;55.80;;;;;;4331296;27;20014;-82
2024/05/03 04:54:14;;;;;;;;;;;17.20;56.60;;;;;;4332701;27;20018;-82
2024/05/03 04:56:33;;;;;;;;;;;17.20;56.20;;;;;;4351969;27;20310;-83
2024/05/03 04:58:54;;;;;;;;;;;17.20;56.50;;;;;;4330177;27;19935;-82
2024/05/03 05:01:15;;;;;;;;;;;17.30;57.00;;;;;;4333723;27;19938;-80
2024/05/03 05:03:34;;;;;;;;;;;17.20;56.40;;;;;;4374418;26;19945;-81
2024/05/03 05:05:53;;;;;;;;;;;17.20;57.10;;;;;;4375642;26;19943;-81
2024/05/03 05:08:14;;;;;;;;;;;17.10;56.80;;;;;;4326159;27;19990;-82
2024/05/03 05:10:34;;;;;;;;;;;17.10;57.00;;;;;;4354656;26;19931;-80
2024/05/03 05:13:00;;;;;;;;;;;17.10;55.90;;;;;;4352196;26;19947;-80
2024/05/03 05:15:19;;;;;;;;;;;17.10;56.00;;;;;;4353959;27;20863;-81
2024/05/03 05:17:39;;;;;;;;;;;17.10;56.10;;;;;;4313258;27;20493;-82
2024/05/03 05:19:58;;;;;;;;;;;17.10;57.10;;;;;;4347087;27;19939;-82
2024/05/03 05:22:17;;;;;;;;;;;17.10;57.20;;;;;;4356379;27;20335;-80
2024/05/03 05:24:37;;;;;;;;;;;17.00;57.00;;;;;;4332116;27;19931;-82
2024/05/03 05:26:57;;;;;;;;;;;17.00;57.30;;;;;;4348857;27;19931;-83
2024/05/03 05:29:17;;;;;;;;;;;17.00;57.10;;;;;;4360773;26;20339;-80
2024/05/03 05:31:36;;;;;;;;;;;17.00;57.40;;;;;;4349674;27;19932;-83
2024/05/03 05:33:55;;;;;;;;;;;17.00;57.70;;;;;;4328648;27;19936;-81
2024/05/03 05:36:26;;;;;;;;;;;17.00;57.70;;;;;;4348975;27;20291;-82
2024/05/03 05:38:45;;;;;;;;;;;17.00;57.90;;;;;;4357429;26;20500;-82
2024/05/03 05:41:05;;;;;;;;;;;17.00;57.00;;;;;;4348867;27;19931;-81
2024/05/03 05:43:24;;;;;;;;;;;17.00;57.10;;;;;;4344319;27;19932;-84
2024/05/03 05:45:43;;;;;;;;;;;16.90;57.40;;;;;;4315106;27;20774;-81
2024/05/03 05:48:03;;;;;;;;;;;16.90;57.40;;;;;;4347496;26;20375;-80
2024/05/03 05:50:22;;;;;;;;;;;16.90;57.80;;;;;;4315119;27;20259;-81
2024/05/03 05:52:41;;;;;;;;;;;17.00;57.70;;;;;;4318046;27;19946;-81
2024/05/03 05:55:01;;;;;;;;;;;17.00;57.40;;;;;;4353337;27;19935;-80
2024/05/03 05:57:20;;;;;;;;;;;17.00;57.50;;;;;;4362882;27;20361;-81
2024/05/03 05:59:39;;;;;;;;;;;17.00;57.70;;;;;;4349794;27;19946;-82
2024/05/03 06:02:00;;;;;;;;;;;17.00;57.70;;;;;;4352527;27;20350;-81
2024/05/03 06:04:20;;;;;;;;;;;17.00;57.90;;;;;;4354246;27;19935;-82
2024/05/03 06:06:39;;;;;;;;;;;17.00;58.10;;;;;;4370069;27;20371;-80
2024/05/03 06:08:58;;;;;;;;;;;17.00;58.30;;;;;;4330836;27;20219;-81
2024/05/03 06:11:18;;;;;;;;;;;17.00;58.20;;;;;;4325613;27;19935;-80
2024/05/03 06:13:37;;;;;;;;;;;17.00;58.50;;;;;;4375303;27;20440;-80
2024/05/03 06:15:56;;;;;;;;;;;17.10;58.70;;;;;;4311937;27;19936;-82
2024/05/03 06:18:16;;;;;;;;;;;17.00;58.30;;;;;;4353428;27;19939;-82
2024/05/03 06:20:35;;;;;;;;;;;17.10;58.20;;;;;;4364655;26;19938;-80
2024/05/03 06:22:54;;;;;;;;;;;17.10;58.30;;;;;;4349724;27;19936;-81
2024/05/03 06:25:13;;;;;;;;;;;17.10;58.40;;;;;;4357451;27;19935;-81
2024/05/03 06:27:33;;;;;;;;;;;17.10;58.40;;;;;;4345490;27;19998;-82
2024/05/03 06:29:52;;;;;;;;;;;17.20;58.10;;;;;;4371184;26;19937;-83
2024/05/03 06:32:13;;;;;;;;;;;17.10;58.20;;;;;;4378253;26;20001;-84
2024/05/03 06:34:32;;;;;;;;;;;17.20;58.00;;;;;;4358442;27;19935;-84
2024/05/03 06:36:52;;;;;;;;;;;17.20;58.40;;;;;;4332439;27;19939;-83
2024/05/03 06:39:11;;;;;;;;;;;17.20;58.30;;;;;;4347500;27;20404;-81
2024/05/03 06:41:30;;;;;;;;;;;17.20;57.90;;;;;;4352178;27;19935;-81
2024/05/03 06:43:50;;;;;;;;;;;17.20;58.00;;;;;;4339384;27;19932;-83
2024/05/03 06:46:09;;;;;;;;;;;17.20;57.50;;;;;;4319869;27;20483;-82
2024/05/03 06:48:32;;;;;;;;;;;17.20;57.40;;;;;;4328658;27;19942;-82
2024/05/03 06:50:51;;;;;;;;;;;17.20;57.80;;;;;;4351043;27;19946;-81
2024/05/03 06:53:10;;;;;;;;;;;17.20;58.10;;;;;;4297002;27;19932;-82
2024/05/03 06:55:29;;;;;;;;;;;17.20;57.60;;;;;;4338154;27;19939;-80
2024/05/03 06:57:49;;;;;;;;;;;17.30;57.70;;;;;;4343068;27;20333;-82
2024/05/03 07:00:09;;;;;;;;;;;17.30;57.30;;;;;;4341188;27;20061;-80
2024/05/03 07:02:28;;;;;;;;;;;17.30;56.30;;;;;;4348798;27;19938;-81
2024/05/03 07:04:47;;;;;;;;;;;17.30;57.30;;;;;;4324716;27;20481;-81
2024/05/03 07:07:07;;;;;;;;;;;17.30;58.00;;;;;;4307705;27;19943;-83
2024/05/03 07:09:26;;;;;;;;;;;17.40;58.60;;;;;;4327078;27;20011;-81
2024/05/03 07:11:45;;;;;;;;;;;17.40;58.60;;;;;;4347857;27;20602;-83
2024/05/03 07:14:07;;;;;;;;;;;17.50;58.60;;;;;;4347202;27;20215;-83
2024/05/03 07:16:26;;;;;;;;;;;17.60;57.40;;;;;;4300311;27;19948;-82
2024/05/03 07:18:45;;;;;;;;;;;17.60;57.20;;;;;;4330351;27;20071;-83
2024/05/03 07:21:05;;;;;;;;;;;17.60;57.60;;;;;;4370633;27;20696;-84
2024/05/03 07:23:25;;;;;;;;;;;17.60;57.70;;;;;;4338515;27;19939;-81
2024/05/03 07:25:44;;;;;;;;;;;17.70;57.60;;;;;;4362492;27;20411;-80
2024/05/03 07:28:03;;;;;;;;;;;17.70;58.10;;;;;;4362010;27;19942;-81
2024/05/03 07:30:23;;;;;;;;;;;17.70;57.40;;;;;;4333228;27;20281;-82
2024/05/03 07:32:42;;;;;;;;;;;17.70;58.10;;;;;;4326463;27;20118;-82
2024/05/03 07:35:01;;;;;;;;;;;17.80;57.00;;;;;;4375820;26;19930;-83
2024/05/03 07:37:21;;;;;;;;;;;17.80;58.10;;;;;;4345588;27;19935;-80
2024/05/03 07:39:41;;;;;;;;;;;17.70;57.30;;;;;;4327815;27;20692;-80
2024/05/03 07:42:00;;;;;;;;;;;17.70;57.20;;;;;;4343621;27;20711;-81
2024/05/03 07:44:20;;;;;;;;;;;17.70;57.10;;;;;;4326659;27;19955;-82
2024/05/03 07:46:39;;;;;;;;;;;17.70;57.70;;;;;;4342463;27;19947;-82
2024/05/03 07:48:58;;;;;;;;;;;17.70;57.90;;;;;;4352616;27;19935;-80
2024/05/03 07:51:19;;;;;;;;;;;17.70;57.40;;;;;;4306802;27;20473;-82
2024/05/03 07:53:38;;;;;;;;;;;17.60;57.30;;;;;;4333789;27;19932;-80
2024/05/03 07:55:58;;;;;;;;;;;17.60;57.50;;;;;;4352191;27;20317;-83
2024/05/03 07:58:17;;;;;;;;;;;17.60;57.40;;;;;;4346291;27;19979;-81
2024/05/03 08:00:36;;;;;;;;;;;17.50;57.60;;;;;;4337082;27;19932;-83
2024/05/03 08:02:56;;;;;;;;;;;17.50;57.40;;;;;;4347847;27;20585;-82
2024/05/03 08:05:16;;;;;;;;;;;17.50;57.00;;;;;;4319634;27;19980;-80
2024/05/03 08:07:35;;;;;;;;;;;17.60;56.60;;;;;;4369107;27;19986;-82
2024/05/03 08:09:55;;;;;;;;;;;17.50;56.60;;;;;;4345975;27;20471;-81
2024/05/03 08:12:14;;;;;;;;;;;17.50;57.20;;;;;;4354616;27;19938;-81
2024/05/03 08:14:35;;;;;;;;;;;17.40;57.70;;;;;;4342968;27;20405;-81
2024/05/03 08:16:54;;;;;;;;;;;17.40;57.90;;;;;;4365113;27;19931;-82
2024/05/03 08:19:13;;;;;;;;;;;17.40;57.50;;;;;;4354623;27;19970;-80
2024/05/03 08:21:33;;;;;;;;;;;17.40;57.40;;;;;;4342211;27;19939;-79
2024/05/03 08:23:52;;;;;;;;;;;17.30;57.70;;;;;;4336357;27;20339;-84
2024/05/03 08:26:12;;;;;;;;;;;17.30;57.20;;;;;;4344179;27;20456;-81
2024/05/03 08:28:36;;;;;;;;;;;17.30;57.80;;;;;;4375078;26;19930;-81
2024/05/03 08:30:56;;;;;;;;;;;17.30;57.80;;;;;;4383845;26;19930;-83
2024/05/03 08:33:20;;;;;;;;;;;17.30;57.20;;;;;;4386157;26;19938;-82
2024/05/03 08:35:40;;;;;;;;;;;17.20;57.40;;;;;;4316469;27;20318;-82
2024/05/03 08:37:59;;;;;;;;;;;17.20;57.10;;;;;;4366943;26;20336;-83
2024/05/03 08:40:20;;;;;;;;;;;17.30;57.40;;;;;;4334249;27;20007;-80
2024/05/03 08:42:51;;;;;;;;;;;17.10;57.70;;;;;;4371981;26;19930;-82
2024/05/03 08:45:11;;;;;;;;;;;17.10;58.00;;;;;;4350250;27;19932;-81
2024/05/03 08:47:36;;;;;;;;;;;17.10;57.20;;;;;;4340300;27;19935;-83
2024/05/03 08:50:09;;;;;;;;;;;17.10;57.50;;;;;;4349865;27;19935;-82
2024/05/03 08:52:32;;;;;;;;;;;17.10;56.90;;;;;;4329578;27;19943;-83
2024/05/03 08:54:51;;;;;;;;;;;17.10;57.40;;;;;;4377585;26;20033;-81
2024/05/03 08:57:10;;;;;;;;;;;17.10;57.00;;;;;;4336001;27;20033;-82
2024/05/03 08:59:33;;;;;;;;;;;17.10;56.70;;;;;;4360933;27;19931;-82
2024/05/03 09:01:52;;;;;;;;;;;17.10;56.60;;;;;;4354918;26;20128;-83
2024/05/03 09:04:11;;;;;;;;;;;17.20;56.90;;;;;;4361477;26;19939;-81
2024/05/03 09:06:32;;;;;;;;;;;17.00;56.90;;;;;;4323364;27;20349;-84
2024/05/03 09:08:51;;;;;;;;;;;17.00;56.60;;;;;;4357162;27;19955;-81
2024/05/03 09:11:11;;;;;;;;;;;17.00;56.70;;;;;;4340593;27;20413;-82
2024/05/03 09:13:31;;;;;;;;;;;17.00;58.00;;;;;;4362889;27;20638;-80
2024/05/03 09:15:52;;;;;;;;;;;16.90;56.90;;;;;;4341718;27;19939;-83
2024/05/03 09:18:12;;;;;;;;;;;16.90;57.50;;;;;;4326871;27;19938;-81
2024/05/03 09:20:31;;;;;;;;;;;16.90;57.80;;;;;;4337234;27;19935;-83
2024/05/03 09:22:50;;;;;;;;;;;16.90;57.40;;;;;;4327127;27;19938;-82
2024/05/03 09:25:13;;;;;;;;;;;16.90;57.80;;;;;;4287538;27;19941;-84
2024/05/03 09:27:32;;;;;;;;;;;16.90;57.50;;;;;;4353531;27;20476;-83
2024/05/03 09:29:52;;;;;;;;;;;16.90;57.90;;;;;;4376609;27;20325;-82
2024/05/03 09:32:12;;;;;;;;;;;16.90;57.30;;;;;;4343083;27;20663;-81
2024/05/03 09:34:31;;;;;;;;;;;16.90;57.10;;;;;;4346924;27;19956;-81
2024/05/03 09:36:55;;;;;;;;;;;16.90;58.80;;;;;;4357296;26;19930;-82
2024/05/03 09:39:15;;;;;;;;;;;16.90;57.50;;;;;;4351325;27;20023;-82
2024/05/03 09:41:36;;;;;;;;;;;17.00;58.30;;;;;;4356824;27;20022;-80
2024/05/03 09:43:55;;;;;;;;;;;17.10;58.70;;;;;;4304183;27;21110;-83
2024/05/03 09:46:16;;;;;;;;;;;16.80;57.60;;;;;;4328197;27;20655;-80
2024/05/03 09:48:35;;;;;;;;;;;16.80;57.80;;;;;;4325606;27;20744;-83
2024/05/03 09:50:55;;;;;;;;;;;16.90;58.80;;;;;;4328930;27;19950;-82
2024/05/03 09:53:16;;;;;;;;;;;16.80;58.00;;;;;;4339970;27;19971;-81
2024/05/03 09:55:43;;;;;;;;;;;17.30;58.60;;;;;;4304046;27;19939;-80
2024/05/03 09:58:04;;;;;;;;;;;16.90;59.20;;;;;;4329513;27;19963;-82
2024/05/03 10:00:24;;;;;;;;;;;16.90;57.90;;;;;;4349476;27;20334;-81
2024/05/03 10:02:49;;;;;;;;;;;16.90;58.30;;;;;;4343242;27;20357;-83
2024/05/03 10:05:09;;;;;;;;;;;16.90;58.20;;;;;;4356190;27;19987;-83
2024/05/03 10:07:30;;;;;;;;;;;16.90;58.40;;;;;;4345431;27;20495;-80
2024/05/03 10:09:51;;;;;;;;;;;17.00;58.40;;;;;;4348591;27;19930;-83
2024/05/03 10:12:12;;;;;;;;;;;17.00;58.60;;;;;;4352412;27;20447;-84
2024/05/03 10:14:31;;;;;;;;;;;17.00;58.80;;;;;;4351236;27;19937;-83
2024/05/03 10:16:50;;;;;;;;;;;17.00;58.40;;;;;;4306129;27;20012;-82
2024/05/03 10:19:13;;;;;;;;;;;17.00;58.80;;;;;;4355894;27;20033;-82
2024/05/03 10:21:37;;;;;;;;;;;17.10;59.80;;;;;;4304119;27;19991;-82
2024/05/03 10:23:58;;;;;;;;;;;17.10;58.90;;;;;;4358685;27;20316;-84
2024/05/03 10:26:21;;;;;;;;;;;17.10;59.80;;;;;;4362685;26;19938;-82
2024/05/03 10:28:42;;;;;;;;;;;17.10;59.70;;;;;;4355555;26;20004;-82
2024/05/03 10:31:07;;;;;;;;;;;17.10;59.70;;;;;;4325307;27;19938;-82
2024/05/03 10:33:26;;;;;;;;;;;17.20;60.50;;;;;;4360329;26;20222;-80
2024/05/03 10:35:47;;;;;;;;;;;17.20;59.60;;;;;;4373834;26;20331;-82
2024/05/03 10:38:06;;;;;;;;;;;17.20;60.00;;;;;;4357210;27;19938;-84
2024/05/03 10:40:29;;;;;;;;;;;17.20;59.70;;;;;;4329927;27;19944;-83
2024/05/03 10:42:48;;;;;;;;;;;17.30;59.70;;;;;;4344821;27;19942;-82
2024/05/03 10:45:08;;;;;;;;;;;17.40;59.40;;;;;;4328965;27;19967;-83
2024/05/03 10:47:27;;;;;;;;;;;17.40;60.10;;;;;;4338810;27;20701;-82
2024/05/03 10:49:47;;;;;;;;;;;17.40;59.90;;;;;;4348062;27;19947;-83
2024/05/03 10:52:06;;;;;;;;;;;17.40;59.50;;;;;;4353716;27;19950;-81
2024/05/03 10:54:27;;;;;;;;;;;17.40;59.70;;;;;;4371400;27;20557;-82
2024/05/03 10:56:46;;;;;;;;;;;17.50;59.50;;;;;;4380634;26;19958;-83
2024/05/03 10:59:05;;;;;;;;;;;17.50;59.70;;;;;;4351790;27;20269;-83
2024/05/03 11:01:25;;;;;;;;;;;17.50;59.40;;;;;;4363154;27;19991;-83
2024/05/03 11:03:44;;;;;;;;;;;17.50;58.70;;;;;;4354872;27;20318;-83
2024/05/03 11:06:04;;;;;;;;;;;17.50;58.70;;;;;;4354960;27;19931;-82
2024/05/03 11:08:23;;;;;;;;;;;17.50;59.60;;;;;;4323889;27;19932;-83
2024/05/03 11:10:43;;;;;;;;;;;17.50;59.00;;;;;;4330173;27;19985;-82
2024/05/03 11:13:02;;;;;;;;;;;17.60;58.70;;;;;;4353223;26;20331;-83
2024/05/03 11:15:22;;;;;;;;;;;17.60;59.00;;;;;;4375988;26;19930;-83
2024/05/03 11:17:42;;;;;;;;;;;17.60;59.50;;;;;;4355343;27;19944;-82
2024/05/03 11:20:01;;;;;;;;;;;17.60;59.80;;;;;;4352348;27;19936;-84
2024/05/03 11:22:22;;;;;;;;;;;17.60;59.40;;;;;;4371136;26;19930;-84
2024/05/03 11:24:41;;;;;;;;;;;17.70;59.50;;;;;;4348889;27;19931;-82
2024/05/03 11:27:04;;;;;;;;;;;17.70;59.30;;;;;;4362774;27;20033;-83
2024/05/03 11:29:24;;;;;;;;;;;17.80;59.70;;;;;;4328787;27;19940;-84
2024/05/03 11:31:44;;;;;;;;;;;17.90;60.10;;;;;;4341697;27;19931;-84
2024/05/03 11:34:05;;;;;;;;;;;17.80;59.80;;;;;;4382447;26;20302;-84
2024/05/03 11:36:29;;;;;;;;;;;17.90;59.90;;;;;;4324671;27;20241;-84
2024/05/03 11:38:48;;;;;;;;;;;17.90;59.40;;;;;;4322064;27;20011;-82
2024/05/03 11:41:08;;;;;;;;;;;18.00;59.70;;;;;;4362130;27;20718;-81
2024/05/03 11:43:27;;;;;;;;;;;18.00;59.30;;;;;;4350200;26;19936;-83
2024/05/03 11:45:47;;;;;;;;;;;18.10;59.00;;;;;;4334022;27;20351;-82
2024/05/03 11:48:07;;;;;;;;;;;18.10;59.60;;;;;;4358261;27;20464;-82
2024/05/03 11:50:26;;;;;;;;;;;18.20;59.80;;;;;;4353653;27;19931;-82
2024/05/03 11:52:47;;;;;;;;;;;18.20;59.40;;;;;;4313100;27;20309;-81
2024/05/03 11:55:07;;;;;;;;;;;18.30;59.50;;;;;;4367373;26;20005;-83
2024/05/03 11:57:27;;;;;;;;;;;18.30;59.60;;;;;;4362210;26;19930;-85
2024/05/03 11:59:46;;;;;;;;;;;18.40;59.50;;;;;;4361949;26;19934;-84
2024/05/03 12:02:06;;;;;;;;;;;18.30;59.70;;;;;;4348756;27;19974;-84
2024/05/03 12:04:25;;;;;;;;;;;18.30;59.80;;;;;;4346348;27;19987;-84
2024/05/03 12:06:44;;;;;;;;;;;18.40;59.60;;;;;;4328485;27;19938;-86
2024/05/03 12:09:04;;;;;;;;;;;18.40;59.60;;;;;;4336869;26;19955;-81
2024/05/03 12:11:23;;;;;;;;;;;18.40;58.90;;;;;;4382802;26;20014;-83
2024/05/03 12:13:43;;;;;;;;;;;18.40;58.90;;;;;;4303817;27;19932;-82
2024/05/03 12:16:02;;;;;;;;;;;18.40;58.60;;;;;;4317792;27;19980;-84
2024/05/03 12:18:21;;;;;;;;;;;18.40;58.80;;;;;;4340940;27;19947;-85
2024/05/03 12:20:40;;;;;;;;;;;18.30;58.50;;;;;;4355212;27;19931;-82
2024/05/03 12:23:00;;;;;;;;;;;18.40;59.40;;;;;;4331802;27;19931;-82
2024/05/03 12:25:19;;;;;;;;;;;18.30;59.10;;;;;;4334107;27;20371;-83
2024/05/03 12:27:38;;;;;;;;;;;18.20;58.90;;;;;;4361621;27;20498;-84
2024/05/03 12:29:58;;;;;;;;;;;18.20;58.50;;;;;;4324767;27;19939;-84
2024/05/03 12:32:18;;;;;;;;;;;18.10;58.80;;;;;;4351561;27;20425;-83
2024/05/03 12:34:38;;;;;;;;;;;18.10;58.50;;;;;;4329590;27;19932;-83
2024/05/03 12:36:58;;;;;;;;;;;18.00;58.50;;;;;;4341790;27;19931;-85
2024/05/03 12:39:17;;;;;;;;;;;18.00;58.60;;;;;;4306819;27;19942;-83
2024/05/03 12:41:38;;;;;;;;;;;18.00;58.70;;;;;;4329184;27;19939;-83
2024/05/03 12:43:57;;;;;;;;;;;17.90;59.10;;;;;;4342000;27;20374;-83
2024/05/03 12:46:16;;;;;;;;;;;18.00;58.90;;;;;;4330918;27;20002;-84
2024/05/03 12:48:36;;;;;;;;;;;17.90;59.40;;;;;;4307378;27;20408;-82
2024/05/03 12:50:55;;;;;;;;;;;17.90;59.00;;;;;;4361020;27;19935;-84
2024/05/03 12:53:14;;;;;;;;;;;17.80;58.50;;;;;;4353476;27;19939;-84
2024/05/03 12:55:34;;;;;;;;;;;17.80;58.90;;;;;;4366515;26;19989;-83
2024/05/03 12:57:53;;;;;;;;;;;17.70;59.20;;;;;;4351936;27;19935;-84
2024/05/03 13:00:12;;;;;;;;;;;17.60;58.90;;;;;;4345913;27;20378;-84
2024/05/03 13:02:32;;;;;;;;;;;17.60;59.10;;;;;;4350744;27;20243;-83
2024/05/03 13:04:52;;;;;;;;;;;17.50;59.60;;;;;;4366027;26;19939;-83
2024/05/03 13:07:11;;;;;;;;;;;17.50;59.90;;;;;;4351278;27;19930;-83
2024/05/03 13:09:37;;;;;;;;;;;17.50;60.40;;;;;;4304535;27;19985;-84
2024/05/03 13:12:02;;;;;;;;;;;17.50;60.70;;;;;;4359531;26;19934;-85
2024/05/03 13:14:22;;;;;;;;;;;17.50;61.20;;;;;;4355669;27;19931;-86
2024/05/03 13:16:41;;;;;;;;;;;17.50;60.40;;;;;;4357282;27;19935;-84
2024/05/03 13:19:00;;;;;;;;;;;17.70;60.40;;;;;;4320241;27;19956;-84
2024/05/03 13:21:19;;;;;;;;;;;17.60;60.30;;;;;;4348747;27;20215;-82
2024/05/03 13:23:39;;;;;;;;;;;17.60;60.50;;;;;;4378944;26;20279;-84
2024/05/03 13:25:58;;;;;;;;;;;17.70;60.70;;;;;;4342787;27;20470;-82
2024/05/03 13:28:19;;;;;;;;;;;17.70;60.40;;;;;;4332511;27;20309;-82
2024/05/03 13:30:38;;;;;;;;;;;17.80;60.70;;;;;;4331535;27;19942;-83
2024/05/03 13:32:57;;;;;;;;;;;17.80;60.90;;;;;;4355746;27;19946;-85